Time;durP1;ratioP1;P1;durP2;ratioP2;P2;SDS_P1;SDS_P2;PMS_P1;PMS_P2;Temp;Humidity;BMP_temperature;BMP_pressure;BME280_temperature;BME280_humidity;BME280_pressure;Samples;Min_cycle;Max_cycle;Signal;HPM_P1;HPM_P2
2024/01/07 00:00:23;;;;;;;;;;;27.40;99.90;;;;;;5110162;28;19912;-72
2024/01/07 00:02:50;;;;;;;;;;;27.50;99.90;;;;;;5095367;28;20361;-66
2024/01/07 00:05:16;;;;;;;;;;;27.60;99.90;;;;;;5113110;28;20386;-68
2024/01/07 00:07:43;;;;;;;;;;;27.70;99.80;;;;;;5115803;28;19908;-70
2024/01/07 00:10:10;;;;;;;;;;;27.80;99.90;;;;;;5115810;28;19953;-70
2024/01/07 00:12:37;;;;;;;;;;;27.70;99.90;;;;;;5115531;28;20379;-67
2024/01/07 00:15:03;;;;;;;;;;;27.90;99.90;;;;;;5115854;28;20009;-68
2024/01/07 00:17:30;;;;;;;;;;;27.90;99.90;;;;;;5115712;28;19907;-70
2024/01/07 00:19:57;;;;;;;;;;;27.90;99.80;;;;;;5097175;28;20264;-73
2024/01/07 00:22:23;;;;;;;;;;;27.80;99.90;;;;;;5110416;28;20276;-69
2024/01/07 00:24:50;;;;;;;;;;;27.90;99.90;;;;;;5106342;28;19971;-67
2024/01/07 00:27:19;;;;;;;;;;;28.00;99.90;;;;;;5110882;28;19983;-68
2024/01/07 00:29:46;;;;;;;;;;;28.00;99.80;;;;;;5112795;28;19915;-66
2024/01/07 00:32:13;;;;;;;;;;;27.90;99.90;;;;;;5096506;27;19908;-65
2024/01/07 00:34:39;;;;;;;;;;;28.00;99.90;;;;;;5126154;27;19908;-67
2024/01/07 00:37:06;;;;;;;;;;;28.10;99.50;;;;;;5109959;28;20034;-70
2024/01/07 00:39:33;;;;;;;;;;;28.30;99.40;;;;;;5104877;27;19912;-68
2024/01/07 00:41:59;;;;;;;;;;;28.50;98.90;;;;;;5102328;28;19968;-66
2024/01/07 00:44:26;;;;;;;;;;;28.50;98.90;;;;;;5109090;28;20005;-66
2024/01/07 00:46:52;;;;;;;;;;;28.70;98.80;;;;;;5112042;27;19912;-67
2024/01/07 00:49:19;;;;;;;;;;;28.70;98.60;;;;;;5105371;27;19920;-67
2024/01/07 00:51:46;;;;;;;;;;;28.80;98.50;;;;;;5107561;27;19939;-67
2024/01/07 00:54:12;;;;;;;;;;;29.10;98.50;;;;;;5094172;28;20410;-67
2024/01/07 00:56:39;;;;;;;;;;;29.30;98.10;;;;;;5124374;27;19964;-69
2024/01/07 00:59:05;;;;;;;;;;;29.30;97.70;;;;;;5112160;27;19916;-65
2024/01/07 01:01:32;;;;;;;;;;;29.40;97.50;;;;;;5112312;28;19911;-65
2024/01/07 01:03:59;;;;;;;;;;;29.60;97.40;;;;;;5102895;28;19927;-67
2024/01/07 01:06:29;;;;;;;;;;;29.70;97.10;;;;;;5098920;28;20319;-63
2024/01/07 01:08:56;;;;;;;;;;;29.80;97.10;;;;;;5101864;28;19916;-68
2024/01/07 01:11:22;;;;;;;;;;;29.90;97.20;;;;;;5107642;28;20392;-69
2024/01/07 01:13:49;;;;;;;;;;;29.90;96.70;;;;;;5103081;28;19912;-65
2024/01/07 01:16:16;;;;;;;;;;;29.90;97.00;;;;;;5095176;27;19911;-67
2024/01/07 01:18:42;;;;;;;;;;;29.70;96.80;;;;;;5102639;28;19957;-70
2024/01/07 01:21:09;;;;;;;;;;;29.50;97.10;;;;;;5091961;27;20256;-66
2024/01/07 01:23:36;;;;;;;;;;;29.40;97.10;;;;;;5099725;28;19924;-66
2024/01/07 01:26:03;;;;;;;;;;;29.40;97.20;;;;;;5104467;28;20291;-65
2024/01/07 01:28:29;;;;;;;;;;;29.30;97.00;;;;;;5109113;28;20379;-68
2024/01/07 01:30:56;;;;;;;;;;;29.10;96.80;;;;;;5114133;28;19907;-66
2024/01/07 01:33:23;;;;;;;;;;;29.20;97.00;;;;;;5114233;28;19943;-72
2024/01/07 01:35:49;;;;;;;;;;;29.30;97.30;;;;;;5114307;28;19908;-67
2024/01/07 01:38:17;;;;;;;;;;;29.50;97.30;;;;;;5113954;28;19908;-67
2024/01/07 01:40:43;;;;;;;;;;;29.90;96.70;;;;;;5114323;28;19907;-74
2024/01/07 01:43:10;;;;;;;;;;;30.00;96.30;;;;;;5114100;28;20000;-72
2024/01/07 01:45:37;;;;;;;;;;;29.90;96.50;;;;;;5114009;28;19919;-69
2024/01/07 01:48:04;;;;;;;;;;;30.10;96.40;;;;;;5114035;28;19908;-66
2024/01/07 01:50:31;;;;;;;;;;;30.00;96.40;;;;;;5114085;28;19908;-75
2024/01/07 01:52:58;;;;;;;;;;;29.90;96.50;;;;;;5113887;28;19915;-68
2024/01/07 01:55:25;;;;;;;;;;;30.10;96.50;;;;;;5113263;28;19994;-73
2024/01/07 01:57:52;;;;;;;;;;;30.10;96.30;;;;;;5113672;28;19919;-66
2024/01/07 02:00:19;;;;;;;;;;;29.90;96.40;;;;;;5113703;28;20329;-72
2024/01/07 02:02:45;;;;;;;;;;;30.00;96.50;;;;;;5113557;28;19955;-69
2024/01/07 02:05:13;;;;;;;;;;;30.10;96.10;;;;;;5113327;28;20022;-72
2024/01/07 02:07:40;;;;;;;;;;;30.00;96.30;;;;;;5113460;28;19908;-72
2024/01/07 02:10:07;;;;;;;;;;;30.10;96.70;;;;;;5095422;28;19937;-70
2024/01/07 02:12:33;;;;;;;;;;;30.40;97.00;;;;;;5113793;28;20349;-67
2024/01/07 02:15:00;;;;;;;;;;;30.80;96.10;;;;;;5113790;28;19908;-69
2024/01/07 02:17:27;;;;;;;;;;;30.90;95.90;;;;;;5113648;28;19938;-68
2024/01/07 02:19:53;;;;;;;;;;;31.00;96.20;;;;;;5113419;28;20338;-70
2024/01/07 02:22:20;;;;;;;;;;;31.10;96.20;;;;;;5113458;28;19912;-67
2024/01/07 02:24:47;;;;;;;;;;;30.90;96.40;;;;;;5095033;28;20293;-71
2024/01/07 02:27:14;;;;;;;;;;;30.60;97.00;;;;;;5113547;28;19934;-66
2024/01/07 02:29:40;;;;;;;;;;;30.40;96.80;;;;;;5113470;28;19950;-72
2024/01/07 02:32:07;;;;;;;;;;;30.50;96.90;;;;;;5113211;28;19939;-65
2024/01/07 02:34:34;;;;;;;;;;;30.50;96.20;;;;;;5113430;28;20309;-71
2024/01/07 02:37:00;;;;;;;;;;;30.60;96.20;;;;;;5113235;28;19908;-65
2024/01/07 02:39:27;;;;;;;;;;;30.90;96.60;;;;;;5113305;28;19911;-70
2024/01/07 02:41:53;;;;;;;;;;;31.10;96.40;;;;;;5113127;28;19907;-71
2024/01/07 02:44:20;;;;;;;;;;;31.30;96.00;;;;;;5094570;28;20382;-67
2024/01/07 02:46:47;;;;;;;;;;;31.40;95.90;;;;;;5112959;28;19950;-67
2024/01/07 02:49:13;;;;;;;;;;;31.30;95.70;;;;;;5113029;28;19995;-71
2024/01/07 02:51:40;;;;;;;;;;;31.20;95.70;;;;;;5094825;28;19907;-70
2024/01/07 02:54:07;;;;;;;;;;;30.80;95.60;;;;;;5112842;28;19912;-68
2024/01/07 02:56:33;;;;;;;;;;;30.60;96.30;;;;;;5112950;28;20431;-71
2024/01/07 02:59:00;;;;;;;;;;;30.70;95.90;;;;;;5113061;28;19912;-65
2024/01/07 03:01:27;;;;;;;;;;;30.80;95.70;;;;;;5112985;28;19981;-66
2024/01/07 03:03:54;;;;;;;;;;;31.00;95.10;;;;;;5112726;28;19912;-67
2024/01/07 03:06:20;;;;;;;;;;;31.30;95.10;;;;;;5114441;28;19943;-74
2024/01/07 03:08:49;;;;;;;;;;;31.50;94.90;;;;;;5117081;28;19908;-65
2024/01/07 03:11:16;;;;;;;;;;;31.90;94.60;;;;;;5117143;28;20427;-67
2024/01/07 03:13:42;;;;;;;;;;;32.30;94.70;;;;;;5117036;28;20326;-75
2024/01/07 03:16:09;;;;;;;;;;;32.80;94.10;;;;;;5117176;28;19908;-73
2024/01/07 03:18:35;;;;;;;;;;;33.10;93.80;;;;;;5117040;28;19935;-66
2024/01/07 03:21:02;;;;;;;;;;;33.80;93.30;;;;;;5116924;28;19912;-69
2024/01/07 03:23:28;;;;;;;;;;;33.50;92.90;;;;;;5116608;28;19923;-72
2024/01/07 03:25:58;;;;;;;;;;;33.50;92.60;;;;;;5116885;28;20360;-67
2024/01/07 03:28:24;;;;;;;;;;;33.90;92.90;;;;;;5116871;28;19907;-71
2024/01/07 03:30:51;;;;;;;;;;;34.40;91.80;;;;;;5116715;28;20365;-71
2024/01/07 03:33:18;;;;;;;;;;;33.70;92.00;;;;;;5116645;28;20348;-67
2024/01/07 03:35:45;;;;;;;;;;;33.70;92.20;;;;;;5116867;28;19911;-75
2024/01/07 03:38:12;;;;;;;;;;;33.90;92.50;;;;;;5116581;28;20280;-69
2024/01/07 03:40:38;;;;;;;;;;;33.70;92.70;;;;;;5116734;28;19908;-64
2024/01/07 03:43:05;;;;;;;;;;;33.50;92.80;;;;;;5116156;28;20318;-68
2024/01/07 03:45:32;;;;;;;;;;;33.60;92.40;;;;;;5116371;28;19957;-68
2024/01/07 03:47:58;;;;;;;;;;;33.40;92.20;;;;;;5116307;28;19973;-71
2024/01/07 03:50:25;;;;;;;;;;;32.70;93.00;;;;;;5116365;28;19930;-64
2024/01/07 03:52:52;;;;;;;;;;;32.40;93.30;;;;;;5116300;28;19908;-65
2024/01/07 03:55:18;;;;;;;;;;;32.20;93.40;;;;;;5116260;28;20281;-68
2024/01/07 03:57:45;;;;;;;;;;;32.20;93.50;;;;;;5116291;28;19912;-65
2024/01/07 04:00:12;;;;;;;;;;;32.50;93.30;;;;;;5116381;28;20383;-67
2024/01/07 04:02:38;;;;;;;;;;;32.60;93.20;;;;;;5115824;28;19912;-70
2024/01/07 04:05:05;;;;;;;;;;;33.20;93.40;;;;;;5116115;28;20373;-69
2024/01/07 04:07:32;;;;;;;;;;;33.90;92.40;;;;;;5116030;28;19908;-66
2024/01/07 04:09:58;;;;;;;;;;;34.40;91.60;;;;;;5116063;28;19915;-66
2024/01/07 04:12:25;;;;;;;;;;;34.40;91.50;;;;;;5116123;28;19908;-68
2024/01/07 04:14:51;;;;;;;;;;;34.10;91.50;;;;;;5115985;28;19907;-73
2024/01/07 04:17:18;;;;;;;;;;;34.00;91.70;;;;;;5115594;28;20353;-69
2024/01/07 04:19:45;;;;;;;;;;;33.90;92.00;;;;;;5116019;28;19916;-73
2024/01/07 04:22:11;;;;;;;;;;;34.10;91.90;;;;;;5115918;28;19908;-70
2024/01/07 04:24:41;;;;;;;;;;;33.90;91.40;;;;;;5115592;28;19969;-70
2024/01/07 04:27:08;;;;;;;;;;;33.70;91.80;;;;;;5115582;28;19908;-69
2024/01/07 04:29:34;;;;;;;;;;;33.30;91.90;;;;;;5115670;28;20419;-66
2024/01/07 04:32:01;;;;;;;;;;;32.40;93.30;;;;;;5115645;28;20003;-73
2024/01/07 04:34:27;;;;;;;;;;;31.50;93.50;;;;;;5115455;28;19939;-67
2024/01/07 04:36:54;;;;;;;;;;;31.20;94.40;;;;;;5115344;28;19912;-66
2024/01/07 04:39:21;;;;;;;;;;;31.10;94.70;;;;;;5115480;28;19912;-68
2024/01/07 04:41:48;;;;;;;;;;;30.90;94.80;;;;;;5114989;28;19908;-65
2024/01/07 04:44:14;;;;;;;;;;;31.10;94.40;;;;;;5115388;28;19916;-67
2024/01/07 04:46:41;;;;;;;;;;;31.50;94.30;;;;;;5115135;28;19908;-68
2024/01/07 04:49:07;;;;;;;;;;;31.80;94.10;;;;;;5115099;28;20391;-66
2024/01/07 04:51:36;;;;;;;;;;;32.40;94.00;;;;;;5115088;28;19914;-66
2024/01/07 04:54:02;;;;;;;;;;;32.90;93.80;;;;;;5114976;28;19947;-69
2024/01/07 04:56:29;;;;;;;;;;;33.10;93.90;;;;;;5115096;28;20344;-66
2024/01/07 04:58:56;;;;;;;;;;;33.80;93.00;;;;;;5115229;28;19994;-65
2024/01/07 05:01:22;;;;;;;;;;;33.80;93.20;;;;;;5114867;28;19915;-70
2024/01/07 05:03:49;;;;;;;;;;;34.50;92.60;;;;;;5114700;28;19919;-67
2024/01/07 05:06:16;;;;;;;;;;;33.80;93.30;;;;;;5114878;28;19915;-67
2024/01/07 05:08:43;;;;;;;;;;;34.20;92.60;;;;;;5114803;28;20002;-65
2024/01/07 05:11:09;;;;;;;;;;;33.70;93.10;;;;;;5115124;28;19964;-72
2024/01/07 05:13:36;;;;;;;;;;;34.00;92.80;;;;;;5114394;28;19995;-65
2024/01/07 05:16:03;;;;;;;;;;;34.40;92.30;;;;;;5114796;28;19914;-65
2024/01/07 05:18:29;;;;;;;;;;;33.60;92.80;;;;;;5114727;28;19915;-66
2024/01/07 05:20:56;;;;;;;;;;;33.70;93.10;;;;;;5114604;28;19930;-65
2024/01/07 05:23:22;;;;;;;;;;;33.70;93.10;;;;;;5114362;28;19912;-65
2024/01/07 05:25:49;;;;;;;;;;;33.70;92.60;;;;;;5114464;28;19912;-68
2024/01/07 05:28:19;;;;;;;;;;;34.10;91.60;;;;;;5113906;28;19908;-68
2024/01/07 05:30:46;;;;;;;;;;;34.60;91.00;;;;;;5114371;28;19961;-69
2024/01/07 05:33:13;;;;;;;;;;;34.70;91.10;;;;;;5114425;28;20281;-67
2024/01/07 05:35:40;;;;;;;;;;;35.00;91.20;;;;;;5114491;28;19908;-69
2024/01/07 05:38:07;;;;;;;;;;;34.40;90.40;;;;;;5114266;28;19907;-68
2024/01/07 05:40:34;;;;;;;;;;;34.50;91.10;;;;;;5114135;28;20364;-68
2024/01/07 05:43:00;;;;;;;;;;;34.20;90.50;;;;;;5114034;28;19907;-67
2024/01/07 05:45:27;;;;;;;;;;;34.10;91.60;;;;;;5114047;28;19919;-68
2024/01/07 05:47:53;;;;;;;;;;;34.00;91.70;;;;;;5114122;28;19908;-67
2024/01/07 05:50:20;;;;;;;;;;;33.60;92.30;;;;;;5114197;28;19908;-69
2024/01/07 05:52:47;;;;;;;;;;;33.70;91.90;;;;;;5114057;28;19907;-66
2024/01/07 05:55:14;;;;;;;;;;;33.70;92.20;;;;;;5113881;28;19920;-68
2024/01/07 05:57:40;;;;;;;;;;;33.60;92.20;;;;;;5114084;28;19951;-67
2024/01/07 06:00:07;;;;;;;;;;;33.20;91.70;;;;;;5114038;28;20372;-71
2024/01/07 06:02:35;;;;;;;;;;;33.00;91.80;;;;;;5113819;28;19908;-67
2024/01/07 06:05:03;;;;;;;;;;;32.80;92.50;;;;;;5113686;28;19916;-72
2024/01/07 06:07:29;;;;;;;;;;;32.80;92.60;;;;;;5095665;28;19916;-66
2024/01/07 06:09:56;;;;;;;;;;;32.30;92.70;;;;;;5113828;28;19908;-65
2024/01/07 06:12:23;;;;;;;;;;;32.20;92.50;;;;;;5113808;28;20257;-70
2024/01/07 06:14:49;;;;;;;;;;;31.70;93.40;;;;;;5113683;28;19946;-65
2024/01/07 06:17:16;;;;;;;;;;;31.20;93.70;;;;;;5113848;28;19933;-65
2024/01/07 06:19:42;;;;;;;;;;;31.10;94.60;;;;;;5113288;28;19953;-65
2024/01/07 06:22:09;;;;;;;;;;;30.70;94.70;;;;;;5113460;28;19908;-66
2024/01/07 06:24:36;;;;;;;;;;;30.70;95.10;;;;;;5113630;28;19915;-69
2024/01/07 06:27:04;;;;;;;;;;;30.60;95.40;;;;;;5113877;28;20249;-71
2024/01/07 06:29:30;;;;;;;;;;;30.60;95.80;;;;;;5113401;28;19908;-70
2024/01/07 06:31:57;;;;;;;;;;;30.50;95.50;;;;;;5113185;28;19922;-66
2024/01/07 06:34:23;;;;;;;;;;;30.20;95.60;;;;;;5113224;28;19908;-65
2024/01/07 06:36:50;;;;;;;;;;;30.20;95.60;;;;;;5113517;28;19904;-72
2024/01/07 06:39:17;;;;;;;;;;;30.10;96.00;;;;;;5113524;28;19919;-66
2024/01/07 06:41:43;;;;;;;;;;;30.10;96.00;;;;;;5112272;28;19908;-66
2024/01/07 06:44:10;;;;;;;;;;;30.10;95.90;;;;;;5113085;28;19923;-65
2024/01/07 06:46:36;;;;;;;;;;;30.00;95.90;;;;;;5113231;28;19908;-65
2024/01/07 06:49:03;;;;;;;;;;;29.90;96.20;;;;;;5113452;28;19908;-65
2024/01/07 06:51:30;;;;;;;;;;;29.60;96.70;;;;;;5113212;28;19960;-67
2024/01/07 06:53:56;;;;;;;;;;;29.50;96.80;;;;;;5112746;28;19985;-67
2024/01/07 06:56:24;;;;;;;;;;;29.50;96.40;;;;;;5113212;28;20261;-66
2024/01/07 06:58:51;;;;;;;;;;;29.30;96.70;;;;;;5113169;28;19995;-67
2024/01/07 07:01:22;;;;;;;;;;;29.00;96.90;;;;;;5113084;28;20017;-68
2024/01/07 07:03:49;;;;;;;;;;;28.80;97.30;;;;;;5113112;28;20280;-66
2024/01/07 07:06:16;;;;;;;;;;;28.50;97.40;;;;;;5113086;28;19914;-67
2024/01/07 07:08:42;;;;;;;;;;;28.30;98.00;;;;;;5112876;28;20360;-67
2024/01/07 07:11:09;;;;;;;;;;;28.50;97.70;;;;;;5113013;28;19943;-70
2024/01/07 07:13:36;;;;;;;;;;;28.70;97.30;;;;;;5113069;28;19908;-73
2024/01/07 07:16:02;;;;;;;;;;;28.80;97.10;;;;;;5112901;28;19908;-71
2024/01/07 07:18:29;;;;;;;;;;;28.80;97.20;;;;;;5112951;28;19960;-68
2024/01/07 07:20:56;;;;;;;;;;;28.90;97.00;;;;;;5112863;28;20292;-67
2024/01/07 07:23:22;;;;;;;;;;;28.90;97.10;;;;;;5112618;28;19908;-65
2024/01/07 07:25:49;;;;;;;;;;;28.80;96.90;;;;;;5112780;28;19955;-66
2024/01/07 07:28:17;;;;;;;;;;;28.70;96.60;;;;;;5112847;28;19915;-70
2024/01/07 07:30:44;;;;;;;;;;;28.60;97.00;;;;;;5112783;28;19908;-67
2024/01/07 07:33:11;;;;;;;;;;;28.60;96.90;;;;;;5112734;28;19908;-65
2024/01/07 07:35:39;;;;;;;;;;;28.30;96.90;;;;;;5112826;28;19965;-65
2024/01/07 07:38:06;;;;;;;;;;;28.20;97.60;;;;;;5112830;28;19936;-68
2024/01/07 07:40:33;;;;;;;;;;;28.20;97.70;;;;;;5112530;28;19915;-66
2024/01/07 07:42:59;;;;;;;;;;;28.10;97.60;;;;;;5112742;28;19908;-67
2024/01/07 07:45:26;;;;;;;;;;;28.00;97.90;;;;;;5112740;28;19919;-66
2024/01/07 07:47:53;;;;;;;;;;;27.70;98.00;;;;;;5112833;28;19908;-66
2024/01/07 07:50:19;;;;;;;;;;;27.50;98.40;;;;;;5112761;28;19908;-67
2024/01/07 07:52:46;;;;;;;;;;;27.50;98.90;;;;;;5114320;28;19907;-70
2024/01/07 07:55:12;;;;;;;;;;;27.40;99.20;;;;;;5116031;28;19934;-72
2024/01/07 07:57:39;;;;;;;;;;;27.50;99.00;;;;;;5116216;28;20279;-70
2024/01/07 08:00:07;;;;;;;;;;;27.40;99.10;;;;;;5116414;28;19990;-70
2024/01/07 08:02:34;;;;;;;;;;;27.50;99.20;;;;;;5116236;28;19904;-67
2024/01/07 08:05:00;;;;;;;;;;;27.40;99.30;;;;;;5116057;28;19955;-69
2024/01/07 08:07:27;;;;;;;;;;;27.30;99.80;;;;;;5116223;28;19943;-65
2024/01/07 08:09:54;;;;;;;;;;;27.20;99.90;;;;;;5115855;28;20366;-69
2024/01/07 08:12:20;;;;;;;;;;;27.10;99.90;;;;;;5115761;28;19912;-66
2024/01/07 08:14:47;;;;;;;;;;;27.00;99.90;;;;;;5115811;28;19908;-68
2024/01/07 08:17:14;;;;;;;;;;;26.90;99.90;;;;;;5115998;28;19908;-69
2024/01/07 08:19:41;;;;;;;;;;;26.70;99.90;;;;;;5115762;28;19931;-65
2024/01/07 08:22:09;;;;;;;;;;;26.60;99.90;;;;;;5115518;28;20391;-67
2024/01/07 08:24:35;;;;;;;;;;;26.50;99.90;;;;;;5115579;28;20020;-70
2024/01/07 08:27:03;;;;;;;;;;;26.40;99.90;;;;;;5115672;28;19907;-65
2024/01/07 08:29:29;;;;;;;;;;;26.30;99.90;;;;;;5115662;28;19908;-64
2024/01/07 08:31:56;;;;;;;;;;;26.20;99.90;;;;;;5115482;28;19918;-67
2024/01/07 08:34:23;;;;;;;;;;;26.20;99.90;;;;;;5115688;28;19918;-71
2024/01/07 08:36:49;;;;;;;;;;;26.10;99.90;;;;;;5116024;28;19955;-71
2024/01/07 08:39:16;;;;;;;;;;;26.00;99.90;;;;;;5115382;28;19908;-68
2024/01/07 08:41:43;;;;;;;;;;;26.00;99.90;;;;;;5115198;28;19908;-70
2024/01/07 08:44:10;;;;;;;;;;;25.90;99.90;;;;;;5115349;28;19923;-66
2024/01/07 08:46:37;;;;;;;;;;;25.90;99.90;;;;;;5115184;28;19956;-68
2024/01/07 08:49:04;;;;;;;;;;;25.80;99.90;;;;;;5115151;28;19908;-66
2024/01/07 08:51:30;;;;;;;;;;;25.70;99.90;;;;;;5115431;28;19908;-66
2024/01/07 08:53:58;;;;;;;;;;;25.70;99.90;;;;;;5115026;28;19911;-66
2024/01/07 08:56:25;;;;;;;;;;;25.50;99.90;;;;;;5115195;28;19912;-68
2024/01/07 08:58:52;;;;;;;;;;;25.60;99.90;;;;;;5115149;28;19953;-70
2024/01/07 09:01:18;;;;;;;;;;;25.50;99.90;;;;;;5115077;28;20041;-65
2024/01/07 09:03:45;;;;;;;;;;;25.50;99.90;;;;;;5113965;28;20344;-66
2024/01/07 09:06:12;;;;;;;;;;;25.50;99.90;;;;;;5115051;28;20380;-71
2024/01/07 09:08:38;;;;;;;;;;;25.40;99.90;;;;;;5114672;28;19957;-66
2024/01/07 09:11:06;;;;;;;;;;;25.30;99.90;;;;;;5114965;28;19908;-70
2024/01/07 09:13:33;;;;;;;;;;;25.20;99.90;;;;;;5114866;28;19954;-72
2024/01/07 09:15:59;;;;;;;;;;;25.20;99.90;;;;;;5114864;28;19908;-65
2024/01/07 09:18:26;;;;;;;;;;;25.20;99.90;;;;;;5114571;28;19977;-67
2024/01/07 09:20:53;;;;;;;;;;;25.10;99.90;;;;;;5114429;28;19961;-72
2024/01/07 09:23:19;;;;;;;;;;;25.10;99.90;;;;;;5114482;28;19961;-66
2024/01/07 09:25:46;;;;;;;;;;;25.10;99.90;;;;;;5114539;28;19915;-65
2024/01/07 09:28:12;;;;;;;;;;;25.00;99.90;;;;;;5114625;28;19976;-65
2024/01/07 09:30:39;;;;;;;;;;;25.00;99.90;;;;;;5114507;28;19908;-70
2024/01/07 09:33:06;;;;;;;;;;;25.00;99.90;;;;;;5114317;28;19907;-64
2024/01/07 09:35:33;;;;;;;;;;;25.00;99.90;;;;;;5114007;28;20318;-67
2024/01/07 09:38:00;;;;;;;;;;;24.90;99.90;;;;;;5114240;28;20238;-65
2024/01/07 09:40:26;;;;;;;;;;;24.90;99.90;;;;;;5114474;28;19908;-68
2024/01/07 09:42:53;;;;;;;;;;;24.90;99.90;;;;;;5114151;28;19935;-72
2024/01/07 09:45:21;;;;;;;;;;;24.90;99.90;;;;;;5114101;28;19999;-68
2024/01/07 09:47:49;;;;;;;;;;;24.90;99.90;;;;;;5114202;28;19995;-69
2024/01/07 09:50:16;;;;;;;;;;;24.80;99.90;;;;;;5113903;28;20365;-67
2024/01/07 09:52:44;;;;;;;;;;;24.80;99.90;;;;;;5114057;28;19988;-68
2024/01/07 09:55:13;;;;;;;;;;;24.70;99.90;;;;;;5113732;28;19920;-66
2024/01/07 09:57:41;;;;;;;;;;;24.70;99.90;;;;;;5113976;28;19915;-67
2024/01/07 10:00:08;;;;;;;;;;;24.70;99.90;;;;;;5113860;28;19957;-66
2024/01/07 10:02:36;;;;;;;;;;;24.60;99.90;;;;;;5113911;28;19952;-64
2024/01/07 10:05:02;;;;;;;;;;;24.60;99.90;;;;;;5113822;28;19919;-73
2024/01/07 10:07:29;;;;;;;;;;;24.60;99.90;;;;;;5113607;28;19908;-66
2024/01/07 10:09:56;;;;;;;;;;;24.60;99.90;;;;;;5113621;28;19912;-65
2024/01/07 10:12:27;;;;;;;;;;;24.50;99.90;;;;;;5113566;28;19943;-64
2024/01/07 10:14:53;;;;;;;;;;;24.50;99.90;;;;;;5115870;27;20281;-68
2024/01/07 10:17:23;;;;;;;;;;;24.60;99.90;;;;;;5107773;27;20381;-66
2024/01/07 10:19:50;;;;;;;;;;;24.50;99.90;;;;;;5103745;27;19915;-65
2024/01/07 10:22:16;;;;;;;;;;;24.60;99.90;;;;;;5096554;28;19965;-68
2024/01/07 10:24:43;;;;;;;;;;;24.60;99.90;;;;;;5098175;28;19943;-64
2024/01/07 10:27:10;;;;;;;;;;;24.50;99.90;;;;;;5102355;28;19912;-65
2024/01/07 10:29:37;;;;;;;;;;;24.50;99.90;;;;;;5114887;27;19919;-65
2024/01/07 10:32:07;;;;;;;;;;;24.50;99.90;;;;;;5086192;28;19915;-67
2024/01/07 10:34:35;;;;;;;;;;;24.50;99.90;;;;;;5111526;27;19965;-65
2024/01/07 10:37:03;;;;;;;;;;;24.50;99.90;;;;;;5102524;28;19916;-65
2024/01/07 10:39:30;;;;;;;;;;;24.40;99.90;;;;;;5103737;28;19912;-68
2024/01/07 10:41:59;;;;;;;;;;;24.50;99.90;;;;;;5097667;28;19953;-71
2024/01/07 10:44:27;;;;;;;;;;;24.40;99.90;;;;;;5098336;28;20253;-68
2024/01/07 10:46:56;;;;;;;;;;;24.40;99.90;;;;;;5111687;28;19907;-68
2024/01/07 10:49:28;;;;;;;;;;;24.40;99.90;;;;;;5112529;28;19941;-65
2024/01/07 10:52:04;;;;;;;;;;;24.40;99.90;;;;;;5112809;28;19915;-65
2024/01/07 10:54:33;;;;;;;;;;;24.40;99.90;;;;;;5112615;28;20311;-66
2024/01/07 10:57:01;;;;;;;;;;;24.30;99.90;;;;;;5111745;28;19916;-66
2024/01/07 10:59:29;;;;;;;;;;;24.30;99.90;;;;;;5112948;28;19912;-65
2024/01/07 11:01:56;;;;;;;;;;;24.30;99.90;;;;;;5113177;28;20413;-67
2024/01/07 11:04:29;;;;;;;;;;;24.30;99.90;;;;;;5094606;28;19916;-66
2024/01/07 11:07:05;;;;;;;;;;;24.30;99.90;;;;;;5112890;28;19908;-66
2024/01/07 11:09:44;;;;;;;;;;;24.30;99.90;;;;;;5113014;28;19919;-65
2024/01/07 11:12:11;;;;;;;;;;;24.20;99.90;;;;;;5112901;28;19927;-65
2024/01/07 11:14:45;;;;;;;;;;;24.20;99.90;;;;;;5112741;28;20284;-66
2024/01/07 11:17:13;;;;;;;;;;;24.20;99.90;;;;;;5112988;28;19908;-65
2024/01/07 11:19:50;;;;;;;;;;;24.20;99.90;;;;;;5112619;28;19953;-65
2024/01/07 11:22:30;;;;;;;;;;;24.10;99.90;;;;;;5112987;28;19912;-65
2024/01/07 11:24:57;;;;;;;;;;;24.20;99.90;;;;;;5112996;28;19961;-65
2024/01/07 11:27:24;;;;;;;;;;;24.10;99.90;;;;;;5114548;28;19960;-65
2024/01/07 11:29:58;;;;;;;;;;;24.10;99.90;;;;;;5117087;28;20236;-65
2024/01/07 11:32:29;;;;;;;;;;;24.10;99.90;;;;;;5116797;28;19937;-65
2024/01/07 11:34:59;;;;;;;;;;;24.10;99.90;;;;;;5116525;28;19960;-65
2024/01/07 11:37:25;;;;;;;;;;;24.10;99.90;;;;;;5116679;28;19907;-65
2024/01/07 11:39:55;;;;;;;;;;;24.10;99.90;;;;;;5116705;28;19988;-66
2024/01/07 11:42:22;;;;;;;;;;;24.10;99.90;;;;;;5116451;28;19908;-66
2024/01/07 11:44:50;;;;;;;;;;;24.10;99.90;;;;;;5116401;28;20261;-65
2024/01/07 11:47:17;;;;;;;;;;;24.00;99.90;;;;;;5116700;28;19915;-66
2024/01/07 11:49:44;;;;;;;;;;;24.00;99.90;;;;;;5116396;28;19953;-65
2024/01/07 11:52:11;;;;;;;;;;;24.00;99.90;;;;;;5116211;28;20328;-66
2024/01/07 11:54:40;;;;;;;;;;;24.10;99.90;;;;;;5116186;28;19920;-65
2024/01/07 11:57:07;;;;;;;;;;;24.10;99.90;;;;;;5116819;28;20011;-65
2024/01/07 11:59:34;;;;;;;;;;;24.00;99.90;;;;;;5116462;28;19930;-65
2024/01/07 12:02:04;;;;;;;;;;;24.10;99.90;;;;;;5116155;28;19908;-65
2024/01/07 12:04:31;;;;;;;;;;;24.10;99.90;;;;;;5116186;28;19916;-65
2024/01/07 12:06:58;;;;;;;;;;;24.00;99.90;;;;;;5115786;28;19922;-65
2024/01/07 12:09:25;;;;;;;;;;;24.00;99.90;;;;;;5115959;28;20413;-64
2024/01/07 12:11:52;;;;;;;;;;;24.00;99.90;;;;;;5115592;28;19998;-64
2024/01/07 12:14:19;;;;;;;;;;;23.90;99.90;;;;;;5116046;28;19915;-66
2024/01/07 12:16:46;;;;;;;;;;;24.00;99.90;;;;;;5116148;28;19918;-66
2024/01/07 12:19:12;;;;;;;;;;;23.90;99.90;;;;;;5115924;28;19969;-65
2024/01/07 12:21:40;;;;;;;;;;;23.90;99.90;;;;;;5115899;28;20028;-65
2024/01/07 12:24:06;;;;;;;;;;;23.90;99.90;;;;;;5115842;28;19918;-65
2024/01/07 12:26:33;;;;;;;;;;;23.90;99.90;;;;;;5115757;28;19911;-65
2024/01/07 12:29:03;;;;;;;;;;;23.90;99.90;;;;;;5115632;28;19907;-66
2024/01/07 12:31:34;;;;;;;;;;;23.90;99.90;;;;;;5115708;28;20340;-67
2024/01/07 12:34:02;;;;;;;;;;;23.80;99.90;;;;;;5115493;28;20325;-68
2024/01/07 12:36:31;;;;;;;;;;;23.80;99.90;;;;;;5115656;28;19922;-66
2024/01/07 12:38:58;;;;;;;;;;;23.80;99.90;;;;;;5115478;28;19912;-65
2024/01/07 12:41:25;;;;;;;;;;;23.80;99.90;;;;;;5115603;28;19908;-65
2024/01/07 12:43:51;;;;;;;;;;;23.80;99.90;;;;;;5115520;28;20344;-64
2024/01/07 12:46:18;;;;;;;;;;;23.80;99.90;;;;;;5115625;28;19954;-64
2024/01/07 12:48:44;;;;;;;;;;;23.80;99.90;;;;;;5115150;28;19955;-65
2024/01/07 12:51:11;;;;;;;;;;;23.70;99.90;;;;;;5115296;28;19918;-67
2024/01/07 12:53:38;;;;;;;;;;;23.70;99.90;;;;;;5115248;28;19947;-66
2024/01/07 12:56:05;;;;;;;;;;;23.70;99.90;;;;;;5115234;28;20416;-65
2024/01/07 12:58:32;;;;;;;;;;;23.70;99.90;;;;;;5115189;28;19908;-66
2024/01/07 13:00:58;;;;;;;;;;;23.70;99.90;;;;;;5115026;28;19953;-65
2024/01/07 13:03:25;;;;;;;;;;;23.60;99.90;;;;;;5115035;28;19908;-65
2024/01/07 13:05:52;;;;;;;;;;;23.70;99.90;;;;;;5115160;28;19919;-64
2024/01/07 13:08:21;;;;;;;;;;;23.60;99.90;;;;;;5115124;28;19912;-64
2024/01/07 13:10:48;;;;;;;;;;;23.60;99.90;;;;;;5114968;28;19912;-64
2024/01/07 13:13:15;;;;;;;;;;;23.60;99.90;;;;;;5114622;28;19915;-65
2024/01/07 13:15:42;;;;;;;;;;;23.60;99.90;;;;;;5114738;28;20372;-65
2024/01/07 13:18:09;;;;;;;;;;;23.50;99.90;;;;;;5114655;28;19914;-67
2024/01/07 13:20:35;;;;;;;;;;;23.60;99.90;;;;;;5114607;28;19908;-64
2024/01/07 13:23:04;;;;;;;;;;;23.60;99.90;;;;;;5114729;28;19931;-67
2024/01/07 13:25:31;;;;;;;;;;;23.50;99.90;;;;;;5114461;28;19969;-67
2024/01/07 13:27:58;;;;;;;;;;;23.60;99.90;;;;;;5114738;28;19911;-65
2024/01/07 13:30:25;;;;;;;;;;;23.60;99.90;;;;;;5114627;28;20447;-64
2024/01/07 13:32:56;;;;;;;;;;;23.50;99.90;;;;;;5114463;28;19915;-66
2024/01/07 13:35:23;;;;;;;;;;;23.60;99.90;;;;;;5114799;28;20360;-65
2024/01/07 13:37:51;;;;;;;;;;;23.50;99.90;;;;;;5114593;28;19908;-65
2024/01/07 13:40:18;;;;;;;;;;;23.50;99.90;;;;;;5114510;28;19908;-66
2024/01/07 13:42:44;;;;;;;;;;;23.50;99.90;;;;;;5114302;28;19948;-65
2024/01/07 13:45:13;;;;;;;;;;;23.50;99.90;;;;;;5114263;28;20010;-65
2024/01/07 13:47:40;;;;;;;;;;;23.50;99.90;;;;;;5114156;28;19908;-66
2024/01/07 13:50:07;;;;;;;;;;;23.50;99.90;;;;;;5113607;28;19983;-63
2024/01/07 13:52:33;;;;;;;;;;;23.40;99.90;;;;;;5114141;28;19908;-64
2024/01/07 13:55:00;;;;;;;;;;;23.40;99.90;;;;;;5114049;28;20018;-64
2024/01/07 13:57:26;;;;;;;;;;;23.40;99.90;;;;;;5114054;28;19907;-64
2024/01/07 13:59:53;;;;;;;;;;;23.40;99.90;;;;;;5114149;28;20372;-65
2024/01/07 14:02:22;;;;;;;;;;;23.40;99.90;;;;;;5113827;28;19920;-69
2024/01/07 14:04:51;;;;;;;;;;;23.40;99.90;;;;;;5114033;28;19915;-65
2024/01/07 14:07:17;;;;;;;;;;;23.30;99.90;;;;;;5113723;28;19916;-66
2024/01/07 14:09:44;;;;;;;;;;;23.40;99.90;;;;;;5113664;28;19907;-66
2024/01/07 14:12:10;;;;;;;;;;;23.40;99.90;;;;;;5113770;28;19908;-65
2024/01/07 14:14:37;;;;;;;;;;;23.30;99.90;;;;;;5113806;28;19949;-65